createdAt,value
2023-01-10T00:01:05.376Z,5.70
2023-01-10T00:03:32.659Z,5.80
2023-01-10T00:05:59.937Z,5.70
2023-01-10T00:08:27.232Z,5.60
2023-01-10T00:10:54.479Z,6.40
2023-01-10T00:13:24.798Z,5.80
2023-01-10T00:15:54.774Z,5.90
2023-01-10T00:18:22.720Z,6.30
2023-01-10T00:20:50.298Z,5.80
2023-01-10T00:23:18.534Z,5.80
2023-01-10T00:25:46.379Z,5.80
2023-01-10T00:28:20.243Z,5.80
2023-01-10T00:30:59.824Z,5.60
2023-01-10T00:33:28.473Z,5.70
2023-01-10T00:35:55.728Z,5.70
2023-01-10T00:38:23.257Z,6.60
2023-01-10T00:40:50.823Z,5.90
2023-01-10T00:43:36.890Z,5.80
2023-01-10T00:46:04.341Z,5.70
2023-01-10T00:48:31.663Z,5.70
2023-01-10T00:50:58.891Z,5.80
2023-01-10T00:53:26.232Z,5.60
2023-01-10T00:55:54.992Z,5.70
2023-01-10T00:58:22.628Z,5.70
2023-01-10T01:00:50.561Z,5.70
2023-01-10T01:03:20.327Z,6.30
2023-01-10T01:05:48.848Z,5.70
2023-01-10T01:08:17.618Z,5.60
2023-01-10T01:10:45.015Z,5.60
2023-01-10T01:13:19.767Z,5.70
2023-01-10T01:15:48.352Z,5.70
2023-01-10T01:18:21.733Z,5.90
2023-01-10T01:20:54.311Z,5.70
2023-01-10T01:23:21.971Z,5.50
2023-01-10T01:25:53.376Z,5.70
2023-01-10T01:28:21.859Z,5.60
2023-01-10T01:30:49.924Z,6.80
2023-01-10T01:33:18.004Z,5.50
2023-01-10T01:35:47.535Z,6.50
2023-01-10T01:38:15.792Z,5.90
2023-01-10T01:40:43.331Z,5.50
2023-01-10T01:43:31.966Z,5.70
2023-01-10T01:46:03.650Z,6.10
2023-01-10T01:48:42.696Z,6.10
2023-01-10T01:51:17.813Z,6.00
2023-01-10T01:53:49.620Z,5.80
2023-01-10T01:56:19.327Z,5.80
2023-01-10T01:59:29.803Z,5.80
2023-01-10T02:02:03.291Z,5.70
2023-01-10T02:04:42.266Z,5.90
2023-01-10T02:07:11.491Z,5.70
2023-01-10T02:09:46.279Z,5.70
2023-01-10T02:12:15.449Z,5.80
2023-01-10T02:14:45.015Z,5.70
2023-01-10T02:17:12.694Z,5.70
2023-01-10T02:19:56.962Z,5.70
2023-01-10T02:22:43.016Z,5.90
2023-01-10T02:25:16.222Z,5.80
2023-01-10T02:28:03.241Z,5.80
2023-01-10T02:30:36.427Z,5.90
2023-01-10T02:33:16.199Z,5.90
2023-01-10T02:35:54.525Z,6.10
2023-01-10T02:38:27.742Z,5.90
2023-01-10T02:41:28.228Z,5.90
2023-01-10T02:44:03.066Z,5.90
2023-01-10T02:46:32.304Z,5.80
2023-01-10T02:48:59.702Z,5.90
2023-01-10T02:51:29.231Z,6.10
2023-01-10T02:54:12.023Z,6.10
2023-01-10T02:56:39.238Z,5.90
2023-01-10T02:59:41.884Z,5.80
2023-01-10T03:02:17.780Z,5.80
2023-01-10T03:05:12.191Z,5.80
2023-01-10T03:08:08.640Z,5.80
2023-01-10T03:10:58.525Z,5.80
2023-01-10T03:13:57.424Z,5.80
2023-01-10T03:16:28.433Z,5.70
2023-01-10T03:19:00.855Z,5.70
2023-01-10T03:21:30.067Z,5.70
2023-01-10T03:24:02.983Z,5.70
2023-01-10T03:26:41.599Z,5.90
2023-01-10T03:29:13.013Z,5.70
2023-01-10T03:31:46.547Z,6.10
2023-01-10T03:34:14.644Z,6.40
2023-01-10T03:37:19.452Z,5.70
2023-01-10T03:40:27.882Z,5.70
2023-01-10T03:43:22.420Z,5.70
2023-01-10T03:46:05.829Z,5.70
2023-01-10T03:48:36.977Z,5.70
2023-01-10T03:51:06.494Z,5.70
2023-01-10T03:53:36.981Z,5.70
2023-01-10T03:56:04.621Z,5.70
2023-01-10T03:58:31.943Z,5.70
2023-01-10T04:00:59.292Z,5.70
2023-01-10T04:03:26.663Z,5.90
2023-01-10T04:05:53.919Z,5.70
2023-01-10T04:08:21.155Z,5.80
2023-01-10T04:10:51.345Z,5.80
2023-01-10T04:13:18.578Z,5.90
2023-01-10T04:15:45.905Z,6.00
2023-01-10T04:18:13.215Z,6.00
2023-01-10T04:20:40.475Z,6.10
2023-01-10T04:23:07.728Z,5.90
2023-01-10T04:25:35.007Z,6.10
2023-01-10T04:28:02.321Z,6.00
2023-01-10T04:30:29.535Z,6.40
2023-01-10T04:32:56.764Z,6.00
2023-01-10T04:35:24.044Z,6.10
2023-01-10T04:37:51.296Z,6.10
2023-01-10T04:40:19.784Z,6.10
2023-01-10T04:42:47.100Z,6.00
2023-01-10T04:45:17.674Z,6.10
2023-01-10T04:47:50.210Z,7.20
2023-01-10T04:50:17.808Z,6.20
2023-01-10T04:52:45.070Z,6.00
2023-01-10T04:55:12.405Z,6.00
2023-01-10T04:57:39.681Z,6.20
2023-01-10T05:00:07.834Z,6.10
2023-01-10T05:02:35.221Z,6.10
2023-01-10T05:05:02.568Z,7.00
2023-01-10T05:07:29.783Z,6.20
2023-01-10T05:09:57.003Z,6.20
2023-01-10T05:12:24.228Z,6.00
2023-01-10T05:14:51.437Z,6.20
2023-01-10T05:17:18.681Z,6.20
2023-01-10T05:19:46.467Z,6.20
2023-01-10T05:22:13.787Z,6.30
2023-01-10T05:24:41.030Z,6.20
2023-01-10T05:27:08.255Z,6.30
2023-01-10T05:29:35.533Z,6.40
2023-01-10T05:32:02.916Z,6.20
2023-01-10T05:34:30.156Z,6.30
2023-01-10T05:36:57.469Z,6.30
2023-01-10T05:39:24.764Z,6.60
2023-01-10T05:41:52.079Z,6.60
2023-01-10T05:44:19.317Z,6.40
2023-01-10T05:46:46.587Z,6.60
2023-01-10T05:49:13.914Z,6.60
2023-01-10T05:51:42.309Z,6.70
2023-01-10T05:54:09.562Z,6.70
2023-01-10T05:56:38.758Z,6.70
2023-01-10T05:59:11.790Z,6.80
2023-01-10T06:01:44.395Z,6.80
2023-01-10T06:04:11.722Z,6.90
2023-01-10T06:06:38.968Z,6.80
2023-01-10T06:09:06.487Z,6.90
2023-01-10T06:11:36.529Z,7.00
2023-01-10T06:14:03.831Z,7.00
2023-01-10T06:16:31.435Z,7.10
2023-01-10T06:18:58.808Z,7.10
2023-01-10T06:21:26.128Z,7.10
2023-01-10T06:23:53.592Z,7.30
2023-01-10T06:26:20.876Z,7.50
2023-01-10T06:28:48.166Z,7.40
2023-01-10T06:31:15.481Z,7.30
2023-01-10T06:33:44.088Z,7.50
2023-01-10T06:36:11.595Z,7.40
2023-01-10T06:38:38.848Z,7.70
2023-01-10T06:41:13.121Z,7.50
2023-01-10T06:43:42.120Z,7.80
2023-01-10T06:46:10.066Z,7.70
2023-01-10T06:48:38.077Z,7.50
2023-01-10T06:51:06.357Z,7.70
2023-01-10T06:53:33.671Z,7.40
2023-01-10T06:56:01.032Z,7.70
2023-01-10T06:58:28.429Z,7.70
2023-01-10T07:00:55.809Z,7.80
2023-01-10T07:03:23.124Z,7.90
2023-01-10T07:05:50.377Z,7.80
2023-01-10T07:08:17.750Z,7.80
2023-01-10T07:10:45.106Z,7.90
2023-01-10T07:13:12.440Z,7.80
2023-01-10T07:15:39.739Z,7.70
2023-01-10T07:18:07.198Z,7.50
2023-01-10T07:20:34.482Z,7.60
2023-01-10T07:23:01.952Z,7.80
2023-01-10T07:25:30.445Z,7.80
2023-01-10T07:27:57.964Z,7.90
2023-01-10T07:30:26.239Z,7.80
2023-01-10T07:32:58.173Z,7.80
2023-01-10T07:35:25.828Z,7.70
2023-01-10T07:37:53.088Z,7.80
2023-01-10T07:40:20.486Z,7.90
2023-01-10T07:42:47.761Z,7.40
2023-01-10T07:45:15.105Z,7.70
2023-01-10T07:47:42.603Z,7.60
2023-01-10T07:50:10.304Z,7.70
2023-01-10T07:52:38.461Z,7.70
2023-01-10T07:55:06.320Z,7.70
2023-01-10T07:57:33.654Z,7.70
2023-01-10T08:00:01.894Z,7.60
2023-01-10T08:02:32.370Z,8.00
2023-01-10T08:04:59.818Z,7.80
2023-01-10T08:07:29.706Z,8.20
2023-01-10T08:09:57.131Z,8.10
2023-01-10T08:12:27.398Z,7.80
2023-01-10T08:14:54.819Z,7.80
2023-01-10T08:17:23.098Z,7.90
2023-01-10T08:19:50.832Z,8.00
2023-01-10T08:22:18.360Z,7.70
2023-01-10T08:24:45.594Z,7.90
2023-01-10T08:27:12.828Z,8.20
2023-01-10T08:29:40.203Z,8.00
2023-01-10T08:32:07.643Z,8.20
2023-01-10T08:34:35.107Z,8.80
2023-01-10T08:37:02.742Z,8.00
2023-01-10T08:39:35.075Z,8.20
2023-01-10T08:42:02.346Z,8.00
2023-01-10T08:44:29.598Z,8.10
2023-01-10T08:46:56.987Z,8.40
2023-01-10T08:49:24.298Z,8.00
2023-01-10T08:51:51.524Z,8.40
2023-01-10T08:54:18.809Z,8.20
2023-01-10T08:56:46.029Z,8.10
2023-01-10T08:59:13.367Z,8.20
2023-01-10T09:01:40.685Z,8.00
2023-01-10T09:04:08.055Z,8.00
2023-01-10T09:06:35.350Z,8.00
2023-01-10T09:09:02.685Z,8.20
2023-01-10T09:11:29.997Z,8.20
2023-01-10T09:13:57.318Z,8.30
2023-01-10T09:16:24.869Z,8.50
2023-01-10T09:18:52.254Z,9.10
2023-01-10T09:21:20.256Z,8.00
2023-01-10T09:23:47.491Z,7.90
2023-01-10T09:26:14.852Z,8.10
2023-01-10T09:28:42.157Z,8.30
2023-01-10T09:31:11.273Z,8.20
2023-01-10T09:33:46.844Z,8.10
2023-01-10T09:36:15.603Z,7.80
2023-01-10T09:38:43.846Z,8.20
2023-01-10T09:41:48.939Z,8.40
2023-01-10T09:44:36.438Z,8.10
2023-01-10T09:47:23.096Z,8.20
2023-01-10T09:50:10.778Z,8.20
2023-01-10T09:52:43.562Z,8.10
2023-01-10T09:55:20.323Z,8.90
2023-01-10T09:57:48.835Z,8.20
2023-01-10T10:00:23.116Z,8.40
2023-01-10T10:02:53.280Z,8.20
2023-01-10T10:05:28.440Z,8.80
2023-01-10T10:08:02.376Z,9.30
2023-01-10T10:10:39.759Z,8.20
2023-01-10T10:13:27.496Z,8.30
2023-01-10T10:16:36.687Z,8.20
2023-01-10T10:19:14.403Z,8.20
2023-01-10T10:22:10.703Z,8.30
2023-01-10T10:24:51.864Z,8.30
2023-01-10T10:27:52.866Z,8.30
2023-01-10T10:30:34.759Z,8.30
2023-01-10T10:33:31.965Z,8.40
2023-01-10T10:36:20.976Z,8.10
2023-01-10T10:38:49.082Z,8.30
2023-01-10T10:41:28.267Z,8.60
2023-01-10T10:44:00.766Z,8.40
2023-01-10T10:46:28.137Z,8.40
2023-01-10T10:49:02.891Z,8.40
2023-01-10T10:51:51.079Z,8.70
2023-01-10T10:54:21.156Z,8.80
2023-01-10T10:56:48.926Z,8.90
2023-01-10T10:59:21.723Z,8.50
2023-01-10T11:01:52.023Z,8.90
2023-01-10T11:04:24.728Z,8.60
2023-01-10T11:06:52.950Z,8.90
2023-01-10T11:09:41.659Z,8.80
2023-01-10T11:12:19.521Z,10.10
2023-01-10T11:14:51.707Z,8.80
2023-01-10T11:17:27.568Z,8.80
2023-01-10T11:20:00.823Z,9.00
2023-01-10T11:22:40.707Z,8.90
2023-01-10T11:25:19.279Z,8.90
2023-01-10T11:27:56.820Z,8.90
2023-01-10T11:30:31.222Z,9.10
2023-01-10T11:33:03.706Z,9.10
2023-01-10T11:35:41.421Z,9.10
2023-01-10T11:38:17.998Z,9.10
2023-01-10T11:41:03.333Z,9.10
2023-01-10T11:43:34.547Z,8.70
2023-01-10T11:46:05.370Z,9.10
2023-01-10T11:49:07.669Z,9.50
2023-01-10T11:51:45.786Z,9.20
2023-01-10T11:54:24.929Z,9.30
2023-01-10T11:57:06.801Z,9.90
2023-01-10T11:59:36.434Z,9.60
2023-01-10T12:02:25.759Z,9.80
2023-01-10T12:04:56.480Z,9.50
2023-01-10T12:07:23.851Z,9.70
2023-01-10T12:10:02.015Z,9.60
2023-01-10T12:12:34.628Z,10.10
2023-01-10T12:15:24.045Z,9.70
2023-01-10T12:17:52.568Z,9.80
2023-01-10T12:20:22.637Z,10.10
2023-01-10T12:23:13.158Z,9.90
2023-01-10T12:25:42.459Z,10.00
2023-01-10T12:28:32.995Z,10.00
2023-01-10T12:31:02.329Z,10.20
2023-01-10T12:33:46.831Z,10.20
2023-01-10T12:36:35.323Z,10.30
2023-01-10T12:39:17.475Z,10.50
2023-01-10T12:42:12.578Z,10.50
2023-01-10T12:45:05.924Z,10.40
2023-01-10T12:47:57.889Z,10.70
2023-01-10T12:50:32.592Z,10.80
2023-01-10T12:53:30.077Z,11.20
2023-01-10T12:56:01.246Z,10.90
2023-01-10T12:58:43.056Z,11.00
2023-01-10T13:01:41.861Z,11.00
2023-01-10T13:04:22.812Z,11.10
2023-01-10T13:06:51.240Z,11.80
2023-01-10T13:09:22.439Z,11.40
2023-01-10T13:12:02.203Z,11.10
2023-01-10T13:14:44.015Z,11.40
2023-01-10T13:17:52.407Z,11.50
2023-01-10T13:20:22.989Z,11.50
2023-01-10T13:22:52.650Z,11.70
2023-01-10T13:25:25.881Z,12.00
2023-01-10T13:28:23.564Z,11.90
2023-01-10T13:31:54.689Z,12.10
2023-01-10T13:34:35.038Z,12.10
2023-01-10T13:37:40.825Z,12.10
2023-01-10T13:40:54.840Z,12.20
2023-01-10T13:46:35.632Z,12.30
2023-01-10T13:49:24.647Z,12.40
2023-01-10T13:52:34.429Z,12.50
2023-01-10T13:55:23.677Z,12.60
2023-01-10T13:58:03.910Z,12.60
2023-01-10T14:00:56.740Z,12.70
2023-01-10T14:04:18.016Z,12.70
2023-01-10T14:06:52.049Z,12.70
2023-01-10T14:09:22.864Z,12.70
2023-01-10T14:12:01.611Z,12.80
2023-01-10T14:15:49.052Z,12.60
2023-01-10T14:18:24.822Z,12.80
2023-01-10T14:21:08.744Z,12.80
2023-01-10T14:23:50.991Z,12.70
2023-01-10T14:26:48.434Z,12.70
2023-01-10T14:29:20.496Z,12.80
2023-01-10T14:31:57.364Z,12.70
2023-01-10T14:34:38.403Z,13.10
2023-01-10T14:38:16.255Z,12.70
2023-01-10T14:40:53.572Z,12.80
2023-01-10T14:47:13.310Z,12.90
2023-01-10T14:50:06.154Z,12.80
2023-01-10T14:53:29.022Z,13.00
2023-01-10T14:56:22.517Z,12.90
2023-01-10T14:59:23.582Z,12.90
2023-01-10T15:02:00.644Z,12.90
2023-01-10T15:04:56.891Z,13.20
2023-01-10T15:07:53.798Z,12.90
2023-01-10T15:10:22.093Z,13.00
2023-01-10T15:12:56.484Z,12.90
2023-01-10T15:18:48.925Z,13.00
2023-01-10T15:21:22.037Z,13.00
2023-01-10T15:23:50.936Z,12.90
2023-01-10T15:26:37.191Z,13.20
2023-01-10T15:29:06.805Z,12.90
2023-01-10T15:31:38.656Z,13.30
2023-01-10T15:34:21.504Z,12.90
2023-01-10T15:36:52.924Z,12.90
2023-01-10T15:39:34.289Z,12.90
2023-01-10T15:42:12.287Z,12.90
2023-01-10T15:44:54.470Z,12.90
2023-01-10T15:48:03.942Z,12.80
2023-01-10T15:50:39.067Z,12.80
2023-01-10T15:53:11.980Z,12.80
2023-01-10T15:55:53.950Z,13.10
2023-01-10T15:58:29.131Z,12.70
2023-01-10T16:01:00.789Z,12.80
2023-01-10T16:07:57.749Z,12.70
2023-01-10T16:10:27.144Z,12.60
2023-01-10T16:13:35.440Z,12.60
2023-01-10T16:16:43.952Z,12.50
2023-01-10T16:19:23.001Z,12.50
2023-01-10T16:22:07.020Z,12.80
2023-01-10T16:32:17.765Z,12.60
2023-01-10T16:34:54.439Z,12.70
2023-01-10T16:37:30.756Z,12.70
2023-01-10T16:39:58.346Z,12.70
2023-01-10T16:42:49.911Z,12.70
2023-01-10T16:45:28.702Z,12.60
2023-01-10T16:47:56.835Z,12.50
2023-01-10T16:50:27.897Z,12.50
2023-01-10T16:52:55.568Z,12.40
2023-01-10T16:55:37.416Z,12.50
2023-01-10T16:58:08.237Z,12.40
2023-01-10T17:00:36.649Z,12.40
2023-01-10T17:03:12.067Z,12.40
2023-01-10T17:05:39.686Z,12.50
2023-01-10T17:08:07.444Z,12.50
2023-01-10T17:10:36.364Z,12.70
2023-01-10T17:13:05.200Z,12.60
2023-01-10T17:15:37.478Z,12.50
2023-01-10T17:18:43.139Z,12.50
2023-01-10T17:21:19.011Z,12.80
2023-01-10T17:23:47.260Z,12.60
2023-01-10T17:26:17.912Z,12.70
2023-01-10T17:32:37.662Z,12.70
2023-01-10T17:35:32.664Z,12.80
2023-01-10T17:38:02.941Z,12.70
2023-01-10T17:46:10.967Z,12.70
2023-01-10T17:48:38.688Z,12.80
2023-01-10T17:51:06.509Z,12.80
2023-01-10T17:53:34.242Z,13.00
2023-01-10T17:56:02.142Z,12.80
2023-01-10T17:58:29.630Z,13.10
2023-01-10T18:00:57.055Z,12.70
2023-01-10T18:03:24.923Z,12.60
2023-01-10T18:05:56.085Z,12.60
2023-01-10T18:08:25.029Z,12.60
2023-01-10T18:10:59.168Z,12.60
2023-01-10T18:13:38.224Z,12.90
2023-01-10T18:16:11.770Z,12.80
2023-01-10T18:18:39.642Z,12.70
2023-01-10T18:21:14.247Z,12.30
2023-01-10T18:24:02.023Z,12.50
2023-01-10T18:26:35.548Z,12.80
2023-01-10T18:29:03.048Z,12.60
2023-01-10T18:31:30.795Z,12.30
2023-01-10T18:33:58.513Z,12.40
2023-01-10T18:36:26.353Z,12.50
2023-01-10T18:38:53.810Z,12.30
2023-01-10T18:41:34.892Z,10.50
2023-01-10T18:46:34.846Z,12.40
2023-01-10T18:49:02.301Z,11.80
2023-01-10T18:51:29.846Z,12.90
2023-01-10T18:54:00.373Z,12.40
2023-01-10T18:56:27.903Z,12.40
2023-01-10T18:58:58.908Z,12.30
2023-01-10T19:01:26.623Z,12.30
2023-01-10T19:03:54.127Z,12.40
2023-01-10T19:06:22.956Z,12.50
2023-01-10T19:08:54.337Z,12.30
2023-01-10T19:11:22.063Z,12.30
2023-01-10T19:13:53.213Z,12.20
2023-01-10T19:16:36.337Z,12.30
2023-01-10T19:19:09.471Z,12.20
2023-01-10T19:21:46.179Z,12.20
2023-01-10T19:24:34.964Z,12.20
2023-01-10T19:27:02.379Z,13.00
2023-01-10T19:29:37.588Z,12.20
2023-01-10T19:32:14.365Z,12.40
2023-01-10T19:34:42.042Z,12.40
2023-01-10T19:37:10.711Z,12.40
2023-01-10T19:39:38.765Z,12.30
2023-01-10T19:42:11.535Z,12.40
2023-01-10T19:47:08.218Z,12.40
2023-01-10T19:49:37.095Z,12.40
2023-01-10T19:52:05.952Z,12.40
2023-01-10T19:54:34.989Z,12.40
2023-01-10T19:57:02.406Z,12.40
2023-01-10T19:59:33.517Z,12.40
2023-01-10T20:02:04.485Z,12.60
2023-01-10T20:04:34.912Z,12.60
2023-01-10T20:07:04.959Z,12.30
2023-01-10T20:09:33.523Z,12.40
2023-01-10T20:12:00.952Z,12.30
2023-01-10T20:14:32.381Z,12.20
2023-01-10T20:17:07.599Z,12.30
2023-01-10T20:19:35.065Z,12.20
2023-01-10T20:22:05.547Z,12.20
2023-01-10T20:24:32.851Z,12.60
2023-01-10T20:27:04.524Z,12.30
2023-01-10T20:29:33.292Z,12.20
2023-01-10T20:32:03.201Z,12.30
2023-01-10T20:34:30.971Z,12.10
2023-01-10T20:36:59.668Z,12.20
2023-01-10T20:41:55.655Z,12.20
2023-01-10T20:44:25.872Z,10.10
2023-01-10T20:46:58.195Z,12.70
2023-01-10T20:49:25.585Z,12.10
2023-01-10T20:51:54.375Z,12.40
2023-01-10T20:54:23.388Z,12.00
2023-01-10T20:56:50.954Z,11.70
2023-01-10T20:59:21.765Z,12.30
2023-01-10T21:01:49.427Z,12.20
2023-01-10T21:04:18.198Z,12.00
2023-01-10T21:06:52.100Z,12.50
2023-01-10T21:09:19.800Z,12.10
2023-01-10T21:12:02.190Z,12.40
2023-01-10T21:14:38.899Z,12.10
2023-01-10T21:17:06.415Z,12.00
2023-01-10T21:19:33.844Z,12.40
2023-01-10T21:22:01.259Z,12.70
2023-01-10T21:24:28.864Z,12.30
2023-01-10T21:26:58.842Z,12.40
2023-01-10T21:29:26.422Z,12.30
2023-01-10T21:31:54.032Z,12.30
2023-01-10T21:34:21.565Z,12.40
2023-01-10T21:36:49.204Z,12.30
2023-01-10T21:39:18.006Z,12.30
2023-01-10T21:42:07.479Z,12.50
2023-01-10T21:44:40.099Z,12.60
2023-01-10T21:47:16.638Z,12.70
2023-01-10T21:49:44.325Z,12.60
2023-01-10T21:52:12.054Z,12.90
2023-01-10T21:54:39.481Z,12.50
2023-01-10T21:57:22.102Z,13.30
2023-01-10T21:59:50.622Z,12.50
2023-01-10T22:02:24.445Z,12.90
2023-01-10T22:05:12.774Z,12.60
2023-01-10T22:07:40.746Z,12.70
2023-01-10T22:10:09.395Z,12.70
2023-01-10T22:12:36.845Z,12.70
2023-01-10T22:15:04.963Z,12.80
2023-01-10T22:17:51.404Z,12.70
2023-01-10T22:22:46.743Z,12.80
2023-01-10T22:25:23.133Z,13.10
2023-01-10T22:27:54.573Z,12.90
2023-01-10T22:30:24.966Z,12.90
2023-01-10T22:32:56.402Z,12.80
2023-01-10T22:35:26.365Z,12.70
2023-01-10T22:37:55.727Z,12.90
2023-01-10T22:40:23.967Z,12.60
2023-01-10T22:42:54.781Z,12.60
2023-01-10T22:45:22.642Z,12.70
2023-01-10T22:47:50.567Z,12.40
2023-01-10T22:50:18.674Z,12.40
2023-01-10T22:52:49.944Z,12.40
2023-01-10T22:55:22.653Z,12.30
2023-01-10T22:57:50.102Z,12.30
2023-01-10T23:00:27.779Z,12.10
2023-01-10T23:02:55.181Z,12.10
2023-01-10T23:05:22.964Z,12.10
2023-01-10T23:07:51.534Z,12.10
2023-01-10T23:10:29.640Z,12.10
2023-01-10T23:13:02.287Z,12.00
2023-01-10T23:15:30.206Z,12.30
2023-01-10T23:17:57.651Z,12.20
2023-01-10T23:20:37.431Z,11.80
2023-01-10T23:23:04.944Z,11.70
2023-01-10T23:25:32.599Z,11.60
2023-01-10T23:28:01.445Z,11.50
2023-01-10T23:30:37.539Z,11.60
2023-01-10T23:33:05.117Z,11.50
2023-01-10T23:35:32.715Z,11.40
2023-01-10T23:38:00.230Z,11.60
2023-01-10T23:40:27.689Z,11.50
2023-01-10T23:42:55.417Z,11.30
2023-01-10T23:45:22.822Z,11.60
2023-01-10T23:47:53.009Z,11.10
2023-01-10T23:50:29.371Z,11.10
2023-01-10T23:52:56.779Z,11.20
2023-01-10T23:55:27.690Z,11.10
2023-01-10T23:57:56.242Z,11.30
